Shawnee, Wyoming
Current Conditions -  °F | °C
As of 10:53 PM on Saturday 25 Oct 2014 (Local Time) from KDGW Reporting Station
Clear Clear  
Wind Chill: 54°   Ceiling: Unl
Heat Index: 54°   Visibility: 10mi
Dew Point: 25°   Wind: 7mph
Humidity: 33%   Direction: 130°SE
Pressure: 29.91"   Gusts: NA
Location:  42.75°N, 105.01°W
Report Text: KDGW 260453Z AUTO 13006KT 10SM CLR 12/M04 A2991 RMK AO2 SLP089 T01221039
Loading
Personal Weather Stations






























Interactive Weather Map
Tropical Storm Tracking
New forecast layout! Learn more

10-Day Weather Forecast

Advertisements
Track Severe Weather on mobile